createdAt,value
2023-04-21T00:04:01.250Z,61700.13
2023-04-21T00:09:05.482Z,61727.28
2023-04-21T00:14:09.478Z,61756.47
2023-04-21T00:19:14.039Z,61724.03
2023-04-21T00:24:16.593Z,61744.94
2023-04-21T00:29:20.793Z,61745.66
2023-04-21T00:34:23.656Z,61778.50
2023-04-21T00:39:26.469Z,61727.28
2023-04-21T00:44:30.496Z,61753.94
2023-04-21T00:49:33.614Z,61784.25
2023-04-21T00:54:36.705Z,61793.72
2023-04-21T00:59:40.959Z,61774.75
2023-04-21T01:04:43.912Z,61796.16
2023-04-21T01:09:46.579Z,61805.06
2023-04-21T01:14:50.772Z,61810.97
2023-04-21T01:19:57.428Z,61822.03
2023-04-21T01:25:01.369Z,61816.41
2023-04-21T01:30:05.816Z,61812.84
2023-04-21T01:35:09.197Z,61855.00
2023-04-21T01:40:13.744Z,61811.53
2023-04-21T01:45:16.332Z,61862.56
2023-04-21T01:50:19.251Z,61841.25
2023-04-21T01:55:23.704Z,61853.75
2023-04-21T02:00:26.555Z,61833.50
2023-04-21T02:05:29.224Z,61841.78
2023-04-21T02:10:34.691Z,61844.97
2023-04-21T02:15:38.540Z,61874.13
2023-04-21T02:20:41.265Z,61863.31
2023-04-21T02:25:45.197Z,61852.50
2023-04-21T02:30:47.815Z,61870.22
2023-04-21T02:35:50.404Z,61850.47
2023-04-21T02:40:54.412Z,61875.00
2023-04-21T02:45:57.018Z,61875.53
2023-04-21T02:50:59.781Z,61859.91
2023-04-21T02:56:05.042Z,61882.84
2023-04-21T03:01:07.759Z,61856.84
2023-04-21T03:06:10.445Z,61889.00
2023-04-21T03:11:14.658Z,61887.41
2023-04-21T03:16:19.759Z,61867.63
2023-04-21T03:21:22.530Z,61846.06
2023-04-21T03:26:27.488Z,61824.63
2023-04-21T03:31:30.160Z,61811.19
2023-04-21T03:36:32.841Z,61801.59
2023-04-21T03:41:36.900Z,61783.72
2023-04-21T03:46:39.519Z,61789.31
2023-04-21T03:51:42.109Z,61795.03
2023-04-21T03:56:46.060Z,61809.13
2023-04-21T04:01:48.729Z,61791.06
2023-04-21T04:06:51.673Z,61812.03
2023-04-21T04:11:56.072Z,61830.44
2023-04-21T04:16:59.768Z,61804.63
2023-04-21T04:22:02.706Z,61834.97
2023-04-21T04:27:07.017Z,61850.66
2023-04-21T04:32:11.033Z,61844.41
2023-04-21T04:37:13.961Z,61842.28
2023-04-21T04:42:20.294Z,61800.72
2023-04-21T04:47:23.066Z,61851.25
2023-04-21T04:52:26.268Z,61840.44
2023-04-21T04:57:31.957Z,61891.41
2023-04-21T05:02:34.908Z,61839.53
2023-04-21T05:07:38.165Z,61820.81
2023-04-21T05:12:42.133Z,61841.13
2023-04-21T05:17:45.858Z,61859.50
2023-04-21T05:22:48.582Z,61893.44
2023-04-21T05:27:53.243Z,61862.91
2023-04-21T05:32:55.888Z,61876.59
2023-04-21T05:37:58.514Z,61858.38
2023-04-21T05:43:02.461Z,61890.69
2023-04-21T05:48:05.900Z,61878.28
2023-04-21T05:53:08.798Z,61890.75
2023-04-21T05:58:12.815Z,61883.38
2023-04-21T06:03:16.694Z,61881.88
2023-04-21T06:08:19.382Z,61895.25
2023-04-21T06:13:23.582Z,61855.88
2023-04-21T06:18:28.860Z,61871.50
2023-04-21T06:23:31.519Z,61870.31
2023-04-21T06:28:36.768Z,61851.69
2023-04-21T06:33:39.632Z,61886.13
2023-04-21T06:38:43.312Z,61885.59
2023-04-21T06:43:47.478Z,61885.78
2023-04-21T06:48:50.155Z,61920.91
2023-04-21T06:53:52.780Z,61934.78
2023-04-21T06:58:57.532Z,61931.38
2023-04-21T07:04:00.393Z,61958.56
2023-04-21T07:09:03.080Z,61976.03
2023-04-21T07:14:07.097Z,61929.13
2023-04-21T07:19:10.110Z,61945.13
2023-04-21T07:24:13.307Z,61987.22
2023-04-21T07:29:18.277Z,61984.81
2023-04-21T07:34:21.133Z,61958.44
2023-04-21T07:39:26.979Z,62021.88
2023-04-21T07:44:31.966Z,62034.78
2023-04-21T07:49:35.186Z,62043.50
2023-04-21T07:54:37.809Z,62095.16
2023-04-21T07:59:41.924Z,62122.19
2023-04-21T08:04:44.592Z,62111.25
2023-04-21T08:09:47.347Z,62147.16
2023-04-21T08:14:51.385Z,62171.56
2023-04-21T08:19:54.036Z,62255.41
2023-04-21T08:24:56.786Z,62319.09
2023-04-21T08:30:01.177Z,62333.78
2023-04-21T08:35:03.969Z,62348.19
2023-04-21T08:40:08.295Z,62267.31
2023-04-21T08:45:12.978Z,62265.38
2023-04-21T08:50:15.870Z,62295.47
2023-04-21T08:55:18.891Z,62272.88
2023-04-21T09:00:23.147Z,62304.31
2023-04-21T09:05:27.759Z,62252.50
2023-04-21T09:10:31.101Z,62239.34
2023-04-21T09:15:39.766Z,62255.22
2023-04-21T09:20:43.896Z,62242.63
2023-04-21T09:25:47.399Z,62252.44
2023-04-21T09:30:57.356Z,62282.81
2023-04-21T09:36:03.241Z,62274.78
2023-04-21T09:41:06.420Z,62318.44
2023-04-21T09:46:12.211Z,62324.28
2023-04-21T09:56:25.469Z,62469.34
2023-04-21T10:01:32.125Z,62489.75
2023-04-21T10:06:36.339Z,62548.84
2023-04-21T10:11:39.522Z,62553.72
2023-04-21T10:16:43.919Z,62507.13
2023-04-21T10:21:46.695Z,62524.91
2023-04-21T10:26:54.566Z,62494.81
2023-04-21T10:31:59.185Z,62462.44
2023-04-21T10:37:17.437Z,62545.53
2023-04-21T10:42:25.167Z,62615.66
2023-04-21T10:47:30.501Z,62580.25
2023-04-21T10:52:34.475Z,62565.78
2023-04-21T10:57:37.939Z,62610.69
2023-04-21T11:02:44.831Z,62624.66
2023-04-21T11:07:47.776Z,62565.50
2023-04-21T11:12:50.510Z,62526.00
2023-04-21T11:17:55.650Z,62442.72
2023-04-21T11:22:58.384Z,62423.53
2023-04-21T11:28:01.067Z,62399.75
2023-04-21T11:33:05.315Z,62421.22
2023-04-21T11:38:07.962Z,62490.25
2023-04-21T11:43:11.137Z,62496.91
2023-04-21T11:48:19.584Z,62492.97
2023-04-21T11:53:23.316Z,62482.03
2023-04-21T11:58:26.056Z,62515.56
2023-04-21T12:03:30.399Z,62584.66
2023-04-21T12:08:33.927Z,62651.16
2023-04-21T12:13:36.633Z,62749.03
2023-04-21T12:18:45.215Z,62980.41
2023-04-21T12:23:47.974Z,63118.53
2023-04-21T12:28:50.810Z,63132.91
2023-04-21T12:33:54.898Z,63089.03
2023-04-21T12:38:57.573Z,63022.56
2023-04-21T12:44:00.046Z,63067.97
2023-04-21T12:49:06.456Z,63068.44
2023-04-21T12:54:09.088Z,63068.97
2023-04-21T12:59:11.872Z,63000.28
2023-04-21T13:04:15.955Z,63053.31
2023-04-21T13:09:18.937Z,63051.41
2023-04-21T13:14:21.585Z,63011.78
2023-04-21T13:19:25.805Z,62971.09
2023-04-21T13:24:28.730Z,62883.03
2023-04-21T13:29:34.193Z,62876.47
2023-04-21T13:34:38.214Z,62832.50
2023-04-21T13:39:40.990Z,62903.75
2023-04-21T13:44:44.467Z,63037.28
2023-04-21T13:49:50.061Z,63077.16
2023-04-21T13:54:54.074Z,63007.50
2023-04-21T13:59:57.048Z,62952.00
2023-04-21T14:05:01.319Z,62898.03
2023-04-21T14:10:05.138Z,63039.81
2023-04-21T14:15:08.975Z,62969.25
2023-04-21T14:20:14.211Z,62986.25
2023-04-21T14:25:17.024Z,62970.25
2023-04-21T14:30:19.651Z,62960.84
2023-04-21T14:35:23.661Z,62948.53
2023-04-21T14:40:26.357Z,62932.69
2023-04-21T14:45:30.318Z,62892.16
2023-04-21T14:50:34.738Z,62886.63
2023-04-21T14:55:37.782Z,62878.53
2023-04-21T15:00:40.813Z,62806.28
2023-04-21T15:05:46.470Z,62773.41
2023-04-21T15:10:49.468Z,62803.28
2023-04-21T15:15:53.001Z,62811.88
2023-04-21T15:21:01.762Z,62781.28
2023-04-21T15:26:06.206Z,62821.22
2023-04-21T15:31:10.295Z,62763.50
2023-04-21T15:36:14.475Z,62765.63
2023-04-21T15:41:17.659Z,62713.03
2023-04-21T15:46:20.509Z,62658.81
2023-04-21T15:51:24.688Z,62736.91
2023-04-21T15:56:27.596Z,62740.06
2023-04-21T16:01:31.020Z,62685.69
2023-04-21T16:06:36.113Z,62713.03
2023-04-21T16:11:38.948Z,62680.03
2023-04-21T16:16:46.160Z,62733.22
2023-04-21T16:21:50.376Z,62735.72
2023-04-21T16:26:53.070Z,62778.38
2023-04-21T16:31:57.859Z,62755.94
2023-04-21T16:37:02.114Z,62711.38
2023-04-21T16:42:06.697Z,62709.56
2023-04-21T16:47:12.192Z,62737.97
2023-04-21T16:52:16.414Z,62809.50
2023-04-21T16:57:20.127Z,62901.41
2023-04-21T17:02:23.440Z,63007.00
2023-04-21T17:07:28.012Z,63067.41
2023-04-21T17:12:34.084Z,63022.25
2023-04-21T17:17:43.359Z,62957.84
2023-04-21T17:22:48.005Z,62859.84
2023-04-21T17:27:52.159Z,62806.09
2023-04-21T17:33:08.407Z,62681.53
2023-04-21T17:38:27.218Z,62669.47
2023-04-21T17:43:29.890Z,62626.16
2023-04-21T17:48:33.916Z,62664.56
2023-04-21T17:54:03.032Z,62655.13
2023-04-21T17:59:05.993Z,62675.34
2023-04-21T18:04:09.537Z,62694.19
2023-04-21T18:09:13.840Z,62679.44
2023-04-21T18:14:18.358Z,62649.81
2023-04-21T18:19:22.274Z,62629.22
2023-04-21T18:24:27.064Z,62619.75
2023-04-21T18:29:59.694Z,62588.91
2023-04-21T18:35:08.061Z,62574.59
2023-04-21T18:40:13.867Z,62531.41
2023-04-21T18:45:17.188Z,62545.59
2023-04-21T18:50:23.458Z,62521.22
2023-04-21T18:55:31.025Z,62505.69
2023-04-21T19:00:39.560Z,62528.19
2023-04-21T19:05:43.291Z,62455.06
2023-04-21T19:10:48.105Z,62493.41
2023-04-21T19:15:51.144Z,62413.22
2023-04-21T19:20:58.037Z,62352.94
2023-04-21T19:26:06.105Z,62334.94
2023-04-21T19:31:09.722Z,62240.28
2023-04-21T19:36:15.043Z,62284.06
2023-04-21T19:41:22.201Z,62216.84
2023-04-21T19:46:31.204Z,62244.34
2023-04-21T19:51:34.766Z,62238.72
2023-04-21T19:56:39.287Z,62294.69
2023-04-21T20:01:42.583Z,62258.88
2023-04-21T20:06:45.945Z,62214.09
2023-04-21T20:11:51.129Z,62238.53
2023-04-21T20:16:54.237Z,62209.84
2023-04-21T20:21:58.125Z,62219.00
2023-04-21T20:27:21.167Z,62241.34
2023-04-21T20:32:24.844Z,62209.38
2023-04-21T20:37:28.190Z,62220.75
2023-04-21T20:42:34.494Z,62218.59
2023-04-21T20:47:39.426Z,62223.94
2023-04-21T20:52:46.241Z,62231.00
2023-04-21T20:57:50.736Z,62211.91
2023-04-21T21:02:54.878Z,62200.22
2023-04-21T21:07:58.305Z,62229.56
2023-04-21T21:13:21.743Z,62192.19
2023-04-21T21:18:26.654Z,62224.00
2023-04-21T21:23:29.615Z,62157.34
2023-04-21T21:28:32.604Z,62145.50
2023-04-21T21:33:38.921Z,62069.03
2023-04-21T21:38:43.063Z,62077.44
2023-04-21T21:43:47.644Z,62027.06
2023-04-21T21:48:51.732Z,61987.53
2023-04-21T21:53:59.245Z,62037.97
2023-04-21T21:59:03.020Z,61965.19
2023-04-21T22:04:29.224Z,61977.09
2023-04-21T22:09:34.871Z,61961.00
2023-04-21T22:14:37.585Z,61952.50
2023-04-21T22:19:43.154Z,61981.63
2023-04-21T22:24:46.057Z,61954.44
2023-04-21T22:29:48.903Z,61943.25
2023-04-21T22:34:54.429Z,61935.81
2023-04-21T22:39:58.839Z,61942.91
2023-04-21T22:45:04.121Z,61926.47
2023-04-21T22:50:10.486Z,61878.38
2023-04-21T22:55:13.184Z,61894.59
2023-04-21T23:00:37.797Z,61852.97
2023-04-21T23:05:42.502Z,61796.53
2023-04-21T23:10:48.882Z,61827.41
2023-04-21T23:15:51.699Z,61804.69
2023-04-21T23:21:21.852Z,61765.34
2023-04-21T23:26:24.800Z,61786.53
2023-04-21T23:31:30.667Z,61794.06
2023-04-21T23:36:34.817Z,61737.66
2023-04-21T23:41:37.646Z,61735.13
2023-04-21T23:46:40.552Z,61747.63
2023-04-21T23:51:44.946Z,61728.06
2023-04-21T23:56:47.617Z,61660.41
